sensor_id;sensor_type;location;lat;lon;timestamp;P1;durP1;ratioP1;P2;durP2;ratioP2
32032;SDS011;31720;52.638;9.216;2023-06-24T00:00:54;4.03;;;2.60;;
32032;SDS011;31720;52.638;9.216;2023-06-24T00:03:55;4.18;;;2.80;;
32032;SDS011;31720;52.638;9.216;2023-06-24T00:06:58;3.70;;;2.75;;
32032;SDS011;31720;52.638;9.216;2023-06-24T00:10:00;4.22;;;2.67;;
32032;SDS011;31720;52.638;9.216;2023-06-24T00:13:03;3.50;;;2.53;;
32032;SDS011;31720;52.638;9.216;2023-06-24T00:16:04;6.03;;;2.60;;
32032;SDS011;31720;52.638;9.216;2023-06-24T00:19:06;5.97;;;3.00;;
32032;SDS011;31720;52.638;9.216;2023-06-24T00:22:09;6.35;;;2.80;;
32032;SDS011;31720;52.638;9.216;2023-06-24T00:25:11;3.63;;;2.47;;
32032;SDS011;31720;52.638;9.216;2023-06-24T00:28:12;5.00;;;2.85;;
32032;SDS011;31720;52.638;9.216;2023-06-24T00:31:14;5.13;;;2.83;;
32032;SDS011;31720;52.638;9.216;2023-06-24T00:34:15;4.32;;;2.72;;
32032;SDS011;31720;52.638;9.216;2023-06-24T00:37:21;5.55;;;2.63;;
32032;SDS011;31720;52.638;9.216;2023-06-24T00:40:22;5.50;;;3.13;;
32032;SDS011;31720;52.638;9.216;2023-06-24T00:43:23;5.85;;;3.10;;
32032;SDS011;31720;52.638;9.216;2023-06-24T00:46:25;5.22;;;3.38;;
32032;SDS011;31720;52.638;9.216;2023-06-24T00:49:26;5.43;;;3.50;;
32032;SDS011;31720;52.638;9.216;2023-06-24T00:52:29;6.00;;;3.40;;
32032;SDS011;31720;52.638;9.216;2023-06-24T00:55:31;6.53;;;3.90;;
32032;SDS011;31720;52.638;9.216;2023-06-24T00:58:32;5.78;;;3.30;;
32032;SDS011;31720;52.638;9.216;2023-06-24T01:01:36;6.18;;;3.42;;
32032;SDS011;31720;52.638;9.216;2023-06-24T01:04:38;8.65;;;3.13;;
32032;SDS011;31720;52.638;9.216;2023-06-24T01:07:42;4.25;;;3.05;;
32032;SDS011;31720;52.638;9.216;2023-06-24T01:10:44;5.30;;;3.42;;
32032;SDS011;31720;52.638;9.216;2023-06-24T01:13:45;3.72;;;3.00;;
32032;SDS011;31720;52.638;9.216;2023-06-24T01:16:49;7.45;;;3.53;;
32032;SDS011;31720;52.638;9.216;2023-06-24T01:20:00;6.45;;;3.72;;
32032;SDS011;31720;52.638;9.216;2023-06-24T01:23:28;7.20;;;3.60;;
32032;SDS011;31720;52.638;9.216;2023-06-24T01:26:47;6.60;;;3.50;;
32032;SDS011;31720;52.638;9.216;2023-06-24T01:30:10;7.50;;;3.60;;
32032;SDS011;31720;52.638;9.216;2023-06-24T01:33:32;5.43;;;3.28;;
32032;SDS011;31720;52.638;9.216;2023-06-24T01:36:40;5.75;;;3.95;;
32032;SDS011;31720;52.638;9.216;2023-06-24T01:39:46;6.05;;;3.47;;
32032;SDS011;31720;52.638;9.216;2023-06-24T01:42:48;5.32;;;3.17;;
32032;SDS011;31720;52.638;9.216;2023-06-24T01:45:51;8.25;;;3.30;;
32032;SDS011;31720;52.638;9.216;2023-06-24T01:48:58;5.95;;;3.95;;
32032;SDS011;31720;52.638;9.216;2023-06-24T01:52:02;5.65;;;2.85;;
32032;SDS011;31720;52.638;9.216;2023-06-24T01:55:06;8.25;;;3.40;;
32032;SDS011;31720;52.638;9.216;2023-06-24T01:58:10;4.78;;;3.25;;
32032;SDS011;31720;52.638;9.216;2023-06-24T02:01:14;4.45;;;3.30;;
32032;SDS011;31720;52.638;9.216;2023-06-24T02:04:18;7.97;;;3.78;;
32032;SDS011;31720;52.638;9.216;2023-06-24T02:07:20;6.43;;;3.88;;
32032;SDS011;31720;52.638;9.216;2023-06-24T02:10:23;9.55;;;3.75;;
32032;SDS011;31720;52.638;9.216;2023-06-24T02:13:25;6.65;;;4.18;;
32032;SDS011;31720;52.638;9.216;2023-06-24T02:16:27;4.63;;;3.42;;
32032;SDS011;31720;52.638;9.216;2023-06-24T02:19:32;4.28;;;3.45;;
32032;SDS011;31720;52.638;9.216;2023-06-24T02:22:34;5.00;;;4.00;;
32032;SDS011;31720;52.638;9.216;2023-06-24T02:25:36;8.02;;;4.18;;
32032;SDS011;31720;52.638;9.216;2023-06-24T02:28:40;7.25;;;3.67;;
32032;SDS011;31720;52.638;9.216;2023-06-24T02:31:42;6.07;;;3.78;;
32032;SDS011;31720;52.638;9.216;2023-06-24T02:34:45;6.32;;;3.83;;
32032;SDS011;31720;52.638;9.216;2023-06-24T02:37:47;9.63;;;3.83;;
32032;SDS011;31720;52.638;9.216;2023-06-24T02:40:49;8.25;;;4.53;;
32032;SDS011;31720;52.638;9.216;2023-06-24T02:43:50;8.15;;;4.65;;
32032;SDS011;31720;52.638;9.216;2023-06-24T02:46:51;15.27;;;4.90;;
32032;SDS011;31720;52.638;9.216;2023-06-24T02:49:56;7.93;;;4.07;;
32032;SDS011;31720;52.638;9.216;2023-06-24T02:52:59;8.52;;;4.15;;
32032;SDS011;31720;52.638;9.216;2023-06-24T02:56:00;5.95;;;3.97;;
32032;SDS011;31720;52.638;9.216;2023-06-24T02:59:03;6.45;;;4.47;;
32032;SDS011;31720;52.638;9.216;2023-06-24T03:02:05;8.60;;;4.25;;
32032;SDS011;31720;52.638;9.216;2023-06-24T03:05:08;6.88;;;4.43;;
32032;SDS011;31720;52.638;9.216;2023-06-24T03:08:11;6.78;;;4.00;;
32032;SDS011;31720;52.638;9.216;2023-06-24T03:11:12;8.95;;;4.65;;
32032;SDS011;31720;52.638;9.216;2023-06-24T03:14:14;7.80;;;4.38;;
32032;SDS011;31720;52.638;9.216;2023-06-24T03:17:16;6.88;;;4.10;;
32032;SDS011;31720;52.638;9.216;2023-06-24T03:20:18;9.27;;;5.00;;
32032;SDS011;31720;52.638;9.216;2023-06-24T03:23:20;9.50;;;5.55;;
32032;SDS011;31720;52.638;9.216;2023-06-24T03:26:22;7.57;;;4.53;;
32032;SDS011;31720;52.638;9.216;2023-06-24T03:29:23;8.05;;;4.00;;
32032;SDS011;31720;52.638;9.216;2023-06-24T03:32:25;10.23;;;5.30;;
32032;SDS011;31720;52.638;9.216;2023-06-24T03:35:27;7.50;;;4.68;;
32032;SDS011;31720;52.638;9.216;2023-06-24T03:38:29;9.20;;;4.72;;
32032;SDS011;31720;52.638;9.216;2023-06-24T03:41:31;8.93;;;4.90;;
32032;SDS011;31720;52.638;9.216;2023-06-24T03:44:33;9.23;;;5.32;;
32032;SDS011;31720;52.638;9.216;2023-06-24T03:47:34;6.50;;;4.07;;
32032;SDS011;31720;52.638;9.216;2023-06-24T03:50:37;7.15;;;4.10;;
32032;SDS011;31720;52.638;9.216;2023-06-24T03:53:38;9.63;;;4.68;;
32032;SDS011;31720;52.638;9.216;2023-06-24T03:56:39;9.30;;;4.93;;
32032;SDS011;31720;52.638;9.216;2023-06-24T03:59:41;8.95;;;4.72;;
32032;SDS011;31720;52.638;9.216;2023-06-24T04:02:42;8.27;;;4.35;;
32032;SDS011;31720;52.638;9.216;2023-06-24T04:05:46;8.90;;;5.00;;
32032;SDS011;31720;52.638;9.216;2023-06-24T04:08:47;10.27;;;5.25;;
32032;SDS011;31720;52.638;9.216;2023-06-24T04:11:51;7.10;;;4.40;;
32032;SDS011;31720;52.638;9.216;2023-06-24T04:14:53;13.55;;;5.43;;
32032;SDS011;31720;52.638;9.216;2023-06-24T04:17:54;12.45;;;6.07;;
32032;SDS011;31720;52.638;9.216;2023-06-24T04:20:57;8.90;;;5.00;;
32032;SDS011;31720;52.638;9.216;2023-06-24T04:23:58;15.40;;;6.18;;
32032;SDS011;31720;52.638;9.216;2023-06-24T04:26:59;11.57;;;6.53;;
32032;SDS011;31720;52.638;9.216;2023-06-24T04:30:01;15.57;;;5.90;;
32032;SDS011;31720;52.638;9.216;2023-06-24T04:33:03;10.73;;;5.85;;
32032;SDS011;31720;52.638;9.216;2023-06-24T04:36:06;14.43;;;6.57;;
32032;SDS011;31720;52.638;9.216;2023-06-24T04:39:07;9.70;;;5.07;;
32032;SDS011;31720;52.638;9.216;2023-06-24T04:42:09;7.18;;;4.07;;
32032;SDS011;31720;52.638;9.216;2023-06-24T04:45:10;9.60;;;4.85;;
32032;SDS011;31720;52.638;9.216;2023-06-24T04:48:12;8.32;;;4.90;;
32032;SDS011;31720;52.638;9.216;2023-06-24T04:51:14;8.90;;;5.05;;
32032;SDS011;31720;52.638;9.216;2023-06-24T04:54:16;8.32;;;5.28;;
32032;SDS011;31720;52.638;9.216;2023-06-24T04:57:24;10.65;;;5.68;;
32032;SDS011;31720;52.638;9.216;2023-06-24T05:00:27;14.45;;;7.38;;
32032;SDS011;31720;52.638;9.216;2023-06-24T05:03:29;10.90;;;5.55;;
32032;SDS011;31720;52.638;9.216;2023-06-24T05:06:31;11.32;;;6.25;;
32032;SDS011;31720;52.638;9.216;2023-06-24T05:09:32;12.80;;;5.95;;
32032;SDS011;31720;52.638;9.216;2023-06-24T05:12:37;10.77;;;5.28;;
32032;SDS011;31720;52.638;9.216;2023-06-24T05:15:38;6.97;;;4.30;;
32032;SDS011;31720;52.638;9.216;2023-06-24T05:18:40;8.98;;;5.03;;
32032;SDS011;31720;52.638;9.216;2023-06-24T05:21:42;14.80;;;5.38;;
32032;SDS011;31720;52.638;9.216;2023-06-24T05:24:44;14.13;;;5.85;;
32032;SDS011;31720;52.638;9.216;2023-06-24T05:27:46;10.93;;;5.70;;
32032;SDS011;31720;52.638;9.216;2023-06-24T05:30:47;11.18;;;5.97;;
32032;SDS011;31720;52.638;9.216;2023-06-24T05:33:48;8.65;;;5.47;;
32032;SDS011;31720;52.638;9.216;2023-06-24T05:36:51;13.05;;;6.93;;
32032;SDS011;31720;52.638;9.216;2023-06-24T05:39:52;13.85;;;6.18;;
32032;SDS011;31720;52.638;9.216;2023-06-24T05:42:53;9.57;;;5.72;;
32032;SDS011;31720;52.638;9.216;2023-06-24T05:45:55;11.05;;;6.90;;
32032;SDS011;31720;52.638;9.216;2023-06-24T05:48:56;13.43;;;7.10;;
32032;SDS011;31720;52.638;9.216;2023-06-24T05:51:59;8.02;;;5.25;;
32032;SDS011;31720;52.638;9.216;2023-06-24T05:55:00;10.13;;;5.18;;
32032;SDS011;31720;52.638;9.216;2023-06-24T05:58:02;11.15;;;6.63;;
32032;SDS011;31720;52.638;9.216;2023-06-24T06:01:03;18.30;;;7.50;;
32032;SDS011;31720;52.638;9.216;2023-06-24T06:04:04;14.25;;;7.03;;
32032;SDS011;31720;52.638;9.216;2023-06-24T06:07:07;11.93;;;6.22;;
32032;SDS011;31720;52.638;9.216;2023-06-24T06:10:08;11.23;;;5.60;;
32032;SDS011;31720;52.638;9.216;2023-06-24T06:13:10;8.73;;;4.13;;
32032;SDS011;31720;52.638;9.216;2023-06-24T06:16:12;8.90;;;4.90;;
32032;SDS011;31720;52.638;9.216;2023-06-24T06:19:13;14.27;;;6.85;;
32032;SDS011;31720;52.638;9.216;2023-06-24T06:22:16;10.13;;;5.68;;
32032;SDS011;31720;52.638;9.216;2023-06-24T06:25:18;9.40;;;5.35;;
32032;SDS011;31720;52.638;9.216;2023-06-24T06:28:19;14.35;;;6.63;;
32032;SDS011;31720;52.638;9.216;2023-06-24T06:31:20;11.30;;;5.60;;
32032;SDS011;31720;52.638;9.216;2023-06-24T06:34:22;9.18;;;4.53;;
32032;SDS011;31720;52.638;9.216;2023-06-24T06:37:25;10.63;;;5.90;;
32032;SDS011;31720;52.638;9.216;2023-06-24T06:40:26;10.23;;;5.10;;
32032;SDS011;31720;52.638;9.216;2023-06-24T06:43:28;9.90;;;5.82;;
32032;SDS011;31720;52.638;9.216;2023-06-24T06:46:30;8.75;;;4.68;;
32032;SDS011;31720;52.638;9.216;2023-06-24T06:49:31;7.13;;;4.55;;
32032;SDS011;31720;52.638;9.216;2023-06-24T06:52:34;6.63;;;3.90;;
32032;SDS011;31720;52.638;9.216;2023-06-24T06:55:36;7.15;;;3.92;;
32032;SDS011;31720;52.638;9.216;2023-06-24T06:58:39;6.10;;;3.63;;
32032;SDS011;31720;52.638;9.216;2023-06-24T07:01:40;6.30;;;3.47;;
32032;SDS011;31720;52.638;9.216;2023-06-24T07:04:41;7.30;;;3.88;;
32032;SDS011;31720;52.638;9.216;2023-06-24T07:07:44;6.78;;;4.18;;
32032;SDS011;31720;52.638;9.216;2023-06-24T07:10:45;5.53;;;3.40;;
32032;SDS011;31720;52.638;9.216;2023-06-24T07:13:47;6.60;;;3.65;;
32032;SDS011;31720;52.638;9.216;2023-06-24T07:16:50;9.77;;;4.22;;
32032;SDS011;31720;52.638;9.216;2023-06-24T07:19:52;8.70;;;4.50;;
32032;SDS011;31720;52.638;9.216;2023-06-24T07:22:54;7.20;;;4.38;;
32032;SDS011;31720;52.638;9.216;2023-06-24T07:25:56;7.97;;;4.30;;
32032;SDS011;31720;52.638;9.216;2023-06-24T07:28:57;11.15;;;5.45;;
32032;SDS011;31720;52.638;9.216;2023-06-24T07:31:59;13.07;;;6.00;;
32032;SDS011;31720;52.638;9.216;2023-06-24T07:35:00;12.65;;;5.07;;
32032;SDS011;31720;52.638;9.216;2023-06-24T07:38:03;7.35;;;3.33;;
32032;SDS011;31720;52.638;9.216;2023-06-24T07:41:04;3.97;;;2.78;;
32032;SDS011;31720;52.638;9.216;2023-06-24T07:44:06;5.18;;;2.63;;
32032;SDS011;31720;52.638;9.216;2023-06-24T07:47:07;5.90;;;2.83;;
32032;SDS011;31720;52.638;9.216;2023-06-24T07:50:08;4.18;;;2.47;;
32032;SDS011;31720;52.638;9.216;2023-06-24T07:53:12;5.65;;;2.55;;
32032;SDS011;31720;52.638;9.216;2023-06-24T07:56:13;7.13;;;3.28;;
32032;SDS011;31720;52.638;9.216;2023-06-24T07:59:15;10.88;;;4.25;;
32032;SDS011;31720;52.638;9.216;2023-06-24T08:02:16;6.78;;;3.50;;
32032;SDS011;31720;52.638;9.216;2023-06-24T08:05:17;5.68;;;3.63;;
32032;SDS011;31720;52.638;9.216;2023-06-24T08:08:21;5.03;;;3.20;;
32032;SDS011;31720;52.638;9.216;2023-06-24T08:11:23;5.97;;;3.70;;
32032;SDS011;31720;52.638;9.216;2023-06-24T08:14:24;7.90;;;3.88;;
32032;SDS011;31720;52.638;9.216;2023-06-24T08:17:25;6.85;;;3.58;;
32032;SDS011;31720;52.638;9.216;2023-06-24T08:20:27;6.97;;;3.50;;
32032;SDS011;31720;52.638;9.216;2023-06-24T08:23:29;14.35;;;4.10;;
32032;SDS011;31720;52.638;9.216;2023-06-24T08:26:31;11.75;;;4.38;;
32032;SDS011;31720;52.638;9.216;2023-06-24T08:29:32;6.03;;;3.40;;
32032;SDS011;31720;52.638;9.216;2023-06-24T08:32:33;6.43;;;3.30;;
32032;SDS011;31720;52.638;9.216;2023-06-24T08:35:35;6.30;;;3.40;;
32032;SDS011;31720;52.638;9.216;2023-06-24T08:38:37;5.18;;;3.00;;
32032;SDS011;31720;52.638;9.216;2023-06-24T08:41:38;5.47;;;2.83;;
32032;SDS011;31720;52.638;9.216;2023-06-24T08:44:40;5.93;;;3.28;;
32032;SDS011;31720;52.638;9.216;2023-06-24T08:47:41;5.97;;;3.15;;
32032;SDS011;31720;52.638;9.216;2023-06-24T08:50:44;3.90;;;2.92;;
32032;SDS011;31720;52.638;9.216;2023-06-24T08:53:52;6.57;;;3.47;;
32032;SDS011;31720;52.638;9.216;2023-06-24T08:56:54;7.43;;;3.47;;
32032;SDS011;31720;52.638;9.216;2023-06-24T08:59:56;4.93;;;2.78;;
32032;SDS011;31720;52.638;9.216;2023-06-24T09:02:57;4.22;;;2.95;;
32032;SDS011;31720;52.638;9.216;2023-06-24T09:05:59;4.57;;;2.70;;
32032;SDS011;31720;52.638;9.216;2023-06-24T09:09:02;9.05;;;3.38;;
32032;SDS011;31720;52.638;9.216;2023-06-24T09:12:03;4.45;;;2.55;;
32032;SDS011;31720;52.638;9.216;2023-06-24T09:15:13;5.00;;;3.40;;
32032;SDS011;31720;52.638;9.216;2023-06-24T09:18:15;4.25;;;2.55;;
32032;SDS011;31720;52.638;9.216;2023-06-24T09:21:21;5.13;;;3.03;;
32032;SDS011;31720;52.638;9.216;2023-06-24T09:24:28;6.28;;;2.63;;
32032;SDS011;31720;52.638;9.216;2023-06-24T09:27:31;4.65;;;3.25;;
32032;SDS011;31720;52.638;9.216;2023-06-24T09:30:33;3.72;;;2.70;;
32032;SDS011;31720;52.638;9.216;2023-06-24T09:33:35;5.60;;;3.40;;
32032;SDS011;31720;52.638;9.216;2023-06-24T09:36:36;6.82;;;3.15;;
32032;SDS011;31720;52.638;9.216;2023-06-24T09:39:44;5.63;;;3.50;;
32032;SDS011;31720;52.638;9.216;2023-06-24T09:42:49;5.32;;;3.20;;
32032;SDS011;31720;52.638;9.216;2023-06-24T09:45:51;4.45;;;2.60;;
32032;SDS011;31720;52.638;9.216;2023-06-24T09:48:53;5.13;;;2.85;;
32032;SDS011;31720;52.638;9.216;2023-06-24T09:51:55;6.93;;;2.97;;
32032;SDS011;31720;52.638;9.216;2023-06-24T09:54:59;4.03;;;2.78;;
32032;SDS011;31720;52.638;9.216;2023-06-24T09:58:02;7.40;;;2.28;;
32032;SDS011;31720;52.638;9.216;2023-06-24T10:01:05;4.68;;;2.33;;
32032;SDS011;31720;52.638;9.216;2023-06-24T10:04:07;4.38;;;2.47;;
32032;SDS011;31720;52.638;9.216;2023-06-24T10:07:09;3.72;;;2.53;;
32032;SDS011;31720;52.638;9.216;2023-06-24T10:10:12;3.72;;;2.38;;
32032;SDS011;31720;52.638;9.216;2023-06-24T10:13:14;4.45;;;2.70;;
32032;SDS011;31720;52.638;9.216;2023-06-24T10:16:16;3.22;;;1.92;;
32032;SDS011;31720;52.638;9.216;2023-06-24T10:19:18;3.80;;;2.67;;
32032;SDS011;31720;52.638;9.216;2023-06-24T10:22:22;5.38;;;2.95;;
32032;SDS011;31720;52.638;9.216;2023-06-24T10:25:27;6.25;;;2.42;;
32032;SDS011;31720;52.638;9.216;2023-06-24T10:32:09;4.90;;;2.30;;
32032;SDS011;31720;52.638;9.216;2023-06-24T10:35:21;2.10;;;1.90;;
32032;SDS011;31720;52.638;9.216;2023-06-24T10:38:24;3.10;;;2.15;;
32032;SDS011;31720;52.638;9.216;2023-06-24T10:41:26;5.88;;;2.83;;
32032;SDS011;31720;52.638;9.216;2023-06-24T10:44:28;2.63;;;2.00;;
32032;SDS011;31720;52.638;9.216;2023-06-24T10:47:29;4.30;;;2.00;;
32032;SDS011;31720;52.638;9.216;2023-06-24T10:50:31;6.95;;;2.25;;
32032;SDS011;31720;52.638;9.216;2023-06-24T10:53:32;3.15;;;2.30;;
32032;SDS011;31720;52.638;9.216;2023-06-24T10:56:35;5.53;;;2.35;;
32032;SDS011;31720;52.638;9.216;2023-06-24T10:59:39;3.25;;;2.17;;
32032;SDS011;31720;52.638;9.216;2023-06-24T11:02:41;2.65;;;2.03;;
32032;SDS011;31720;52.638;9.216;2023-06-24T11:05:43;6.25;;;2.53;;
32032;SDS011;31720;52.638;9.216;2023-06-24T11:08:46;3.40;;;1.85;;
32032;SDS011;31720;52.638;9.216;2023-06-24T11:11:49;2.95;;;1.90;;
32032;SDS011;31720;52.638;9.216;2023-06-24T11:14:50;6.30;;;2.60;;
32032;SDS011;31720;52.638;9.216;2023-06-24T11:17:51;5.18;;;2.55;;
32032;SDS011;31720;52.638;9.216;2023-06-24T11:20:53;4.13;;;2.90;;
32032;SDS011;31720;52.638;9.216;2023-06-24T11:23:54;4.85;;;3.03;;
32032;SDS011;31720;52.638;9.216;2023-06-24T11:26:57;4.45;;;2.88;;
32032;SDS011;31720;52.638;9.216;2023-06-24T11:30:00;4.75;;;2.78;;
32032;SDS011;31720;52.638;9.216;2023-06-24T11:33:02;4.70;;;2.75;;
32032;SDS011;31720;52.638;9.216;2023-06-24T11:36:08;4.47;;;2.45;;
32032;SDS011;31720;52.638;9.216;2023-06-24T11:39:19;7.65;;;3.03;;
32032;SDS011;31720;52.638;9.216;2023-06-24T11:42:23;5.65;;;2.85;;
32032;SDS011;31720;52.638;9.216;2023-06-24T11:45:24;5.82;;;2.85;;
32032;SDS011;31720;52.638;9.216;2023-06-24T11:48:27;4.88;;;2.40;;
32032;SDS011;31720;52.638;9.216;2023-06-24T11:51:29;5.05;;;3.17;;
32032;SDS011;31720;52.638;9.216;2023-06-24T11:54:30;7.47;;;2.55;;
32032;SDS011;31720;52.638;9.216;2023-06-24T11:57:53;5.65;;;2.72;;
32032;SDS011;31720;52.638;9.216;2023-06-24T12:00:56;5.15;;;2.88;;
32032;SDS011;31720;52.638;9.216;2023-06-24T12:03:59;4.03;;;2.45;;
32032;SDS011;31720;52.638;9.216;2023-06-24T12:07:01;3.55;;;2.50;;
32032;SDS011;31720;52.638;9.216;2023-06-24T12:10:02;4.45;;;2.95;;
32032;SDS011;31720;52.638;9.216;2023-06-24T12:13:06;6.32;;;2.95;;
32032;SDS011;31720;52.638;9.216;2023-06-24T12:16:08;4.60;;;2.67;;
32032;SDS011;31720;52.638;9.216;2023-06-24T12:19:10;3.78;;;2.20;;
32032;SDS011;31720;52.638;9.216;2023-06-24T12:22:11;3.92;;;2.67;;
32032;SDS011;31720;52.638;9.216;2023-06-24T12:25:12;4.07;;;2.25;;
32032;SDS011;31720;52.638;9.216;2023-06-24T12:28:15;3.45;;;2.50;;
32032;SDS011;31720;52.638;9.216;2023-06-24T12:31:17;5.97;;;2.38;;
32032;SDS011;31720;52.638;9.216;2023-06-24T12:34:18;4.55;;;2.42;;
32032;SDS011;31720;52.638;9.216;2023-06-24T12:37:21;3.80;;;2.45;;
32032;SDS011;31720;52.638;9.216;2023-06-24T12:40:22;6.75;;;2.50;;
32032;SDS011;31720;52.638;9.216;2023-06-24T12:43:25;5.22;;;2.55;;
32032;SDS011;31720;52.638;9.216;2023-06-24T12:46:26;2.60;;;2.00;;
32032;SDS011;31720;52.638;9.216;2023-06-24T12:49:28;5.10;;;2.33;;
32032;SDS011;31720;52.638;9.216;2023-06-24T12:52:29;4.28;;;2.47;;
32032;SDS011;31720;52.638;9.216;2023-06-24T12:55:30;3.85;;;2.38;;
32032;SDS011;31720;52.638;9.216;2023-06-24T12:58:33;5.00;;;2.20;;
32032;SDS011;31720;52.638;9.216;2023-06-24T13:01:35;3.35;;;2.42;;
32032;SDS011;31720;52.638;9.216;2023-06-24T13:04:36;4.68;;;2.53;;
32032;SDS011;31720;52.638;9.216;2023-06-24T13:07:37;2.35;;;1.70;;
32032;SDS011;31720;52.638;9.216;2023-06-24T13:10:39;2.80;;;1.95;;
32032;SDS011;31720;52.638;9.216;2023-06-24T13:13:43;2.22;;;1.90;;
32032;SDS011;31720;52.638;9.216;2023-06-24T13:16:44;3.67;;;2.25;;
32032;SDS011;31720;52.638;9.216;2023-06-24T13:19:45;2.75;;;2.05;;
32032;SDS011;31720;52.638;9.216;2023-06-24T13:22:47;3.20;;;1.98;;
32032;SDS011;31720;52.638;9.216;2023-06-24T13:25:48;3.72;;;1.92;;
32032;SDS011;31720;52.638;9.216;2023-06-24T13:28:51;8.85;;;3.70;;
32032;SDS011;31720;52.638;9.216;2023-06-24T13:31:52;4.50;;;2.10;;
32032;SDS011;31720;52.638;9.216;2023-06-24T13:34:54;3.67;;;2.10;;
32032;SDS011;31720;52.638;9.216;2023-06-24T13:37:55;3.75;;;2.30;;
32032;SDS011;31720;52.638;9.216;2023-06-24T13:40:58;4.18;;;2.05;;
32032;SDS011;31720;52.638;9.216;2023-06-24T13:44:01;3.95;;;2.20;;
32032;SDS011;31720;52.638;9.216;2023-06-24T13:47:03;2.88;;;2.05;;
32032;SDS011;31720;52.638;9.216;2023-06-24T13:50:05;2.83;;;2.08;;
32032;SDS011;31720;52.638;9.216;2023-06-24T13:53:07;3.03;;;2.20;;
32032;SDS011;31720;52.638;9.216;2023-06-24T13:56:08;6.70;;;2.40;;
32032;SDS011;31720;52.638;9.216;2023-06-24T13:59:11;2.75;;;1.83;;
32032;SDS011;31720;52.638;9.216;2023-06-24T14:02:12;3.63;;;2.13;;
32032;SDS011;31720;52.638;9.216;2023-06-24T14:05:14;3.42;;;2.30;;
32032;SDS011;31720;52.638;9.216;2023-06-24T14:08:15;6.78;;;2.85;;
32032;SDS011;31720;52.638;9.216;2023-06-24T14:11:17;2.70;;;1.75;;
32032;SDS011;31720;52.638;9.216;2023-06-24T14:14:20;5.38;;;2.13;;
32032;SDS011;31720;52.638;9.216;2023-06-24T14:17:21;3.70;;;2.65;;
32032;SDS011;31720;52.638;9.216;2023-06-24T14:20:23;4.55;;;1.98;;
32032;SDS011;31720;52.638;9.216;2023-06-24T14:23:25;4.15;;;2.53;;
32032;SDS011;31720;52.638;9.216;2023-06-24T14:26:26;2.28;;;1.90;;
32032;SDS011;31720;52.638;9.216;2023-06-24T14:29:29;4.28;;;2.20;;
32032;SDS011;31720;52.638;9.216;2023-06-24T14:32:30;3.20;;;2.05;;
32032;SDS011;31720;52.638;9.216;2023-06-24T14:35:32;3.75;;;1.95;;
32032;SDS011;31720;52.638;9.216;2023-06-24T14:38:33;3.60;;;2.30;;
32032;SDS011;31720;52.638;9.216;2023-06-24T14:41:34;2.92;;;2.10;;
32032;SDS011;31720;52.638;9.216;2023-06-24T14:44:37;3.15;;;2.50;;
32032;SDS011;31720;52.638;9.216;2023-06-24T14:47:38;4.00;;;2.22;;
32032;SDS011;31720;52.638;9.216;2023-06-24T14:50:40;4.90;;;1.92;;
32032;SDS011;31720;52.638;9.216;2023-06-24T14:53:41;5.65;;;2.58;;
32032;SDS011;31720;52.638;9.216;2023-06-24T14:56:42;4.07;;;2.42;;
32032;SDS011;31720;52.638;9.216;2023-06-24T14:59:45;3.78;;;2.20;;
32032;SDS011;31720;52.638;9.216;2023-06-24T15:02:46;4.30;;;2.70;;
32032;SDS011;31720;52.638;9.216;2023-06-24T15:05:48;5.13;;;2.17;;
32032;SDS011;31720;52.638;9.216;2023-06-24T15:08:49;3.55;;;2.17;;
32032;SDS011;31720;52.638;9.216;2023-06-24T15:11:50;3.88;;;2.30;;
32032;SDS011;31720;52.638;9.216;2023-06-24T15:14:53;3.53;;;2.00;;
32032;SDS011;31720;52.638;9.216;2023-06-24T15:17:54;3.17;;;2.20;;
32032;SDS011;31720;52.638;9.216;2023-06-24T15:20:56;4.00;;;2.60;;
32032;SDS011;31720;52.638;9.216;2023-06-24T15:23:57;3.03;;;1.92;;
32032;SDS011;31720;52.638;9.216;2023-06-24T15:26:58;4.13;;;2.05;;
32032;SDS011;31720;52.638;9.216;2023-06-24T15:30:01;4.03;;;2.40;;
32032;SDS011;31720;52.638;9.216;2023-06-24T15:33:03;4.20;;;2.60;;
32032;SDS011;31720;52.638;9.216;2023-06-24T15:36:04;4.05;;;2.80;;
32032;SDS011;31720;52.638;9.216;2023-06-24T15:39:06;4.07;;;2.60;;
32032;SDS011;31720;52.638;9.216;2023-06-24T15:42:07;3.92;;;2.47;;
32032;SDS011;31720;52.638;9.216;2023-06-24T15:45:11;4.20;;;2.70;;
32032;SDS011;31720;52.638;9.216;2023-06-24T15:48:12;3.92;;;2.38;;
32032;SDS011;31720;52.638;9.216;2023-06-24T15:51:14;4.88;;;2.60;;
32032;SDS011;31720;52.638;9.216;2023-06-24T15:54:15;2.53;;;1.80;;
32032;SDS011;31720;52.638;9.216;2023-06-24T15:57:17;4.72;;;2.20;;
32032;SDS011;31720;52.638;9.216;2023-06-24T16:00:19;3.25;;;1.85;;
32032;SDS011;31720;52.638;9.216;2023-06-24T16:03:21;3.03;;;1.88;;
32032;SDS011;31720;52.638;9.216;2023-06-24T16:06:22;2.28;;;1.90;;
32032;SDS011;31720;52.638;9.216;2023-06-24T16:09:24;3.55;;;2.20;;
32032;SDS011;31720;52.638;9.216;2023-06-24T16:12:25;3.72;;;2.58;;
32032;SDS011;31720;52.638;9.216;2023-06-24T16:15:28;2.90;;;2.20;;
32032;SDS011;31720;52.638;9.216;2023-06-24T16:18:29;2.45;;;1.95;;
32032;SDS011;31720;52.638;9.216;2023-06-24T16:21:31;2.00;;;1.80;;
32032;SDS011;31720;52.638;9.216;2023-06-24T16:24:33;3.17;;;2.00;;
32032;SDS011;31720;52.638;9.216;2023-06-24T16:27:34;3.47;;;1.67;;
32032;SDS011;31720;52.638;9.216;2023-06-24T16:30:37;3.00;;;2.22;;
32032;SDS011;31720;52.638;9.216;2023-06-24T16:33:38;2.20;;;1.98;;
32032;SDS011;31720;52.638;9.216;2023-06-24T16:36:40;3.28;;;2.38;;
32032;SDS011;31720;52.638;9.216;2023-06-24T16:39:41;4.30;;;2.50;;
32032;SDS011;31720;52.638;9.216;2023-06-24T16:42:42;3.53;;;2.20;;
32032;SDS011;31720;52.638;9.216;2023-06-24T16:45:45;3.53;;;2.55;;
32032;SDS011;31720;52.638;9.216;2023-06-24T16:48:46;5.15;;;2.90;;
32032;SDS011;31720;52.638;9.216;2023-06-24T16:51:48;3.72;;;2.50;;
32032;SDS011;31720;52.638;9.216;2023-06-24T16:54:49;3.75;;;2.60;;
32032;SDS011;31720;52.638;9.216;2023-06-24T16:57:50;3.80;;;2.50;;
32032;SDS011;31720;52.638;9.216;2023-06-24T17:00:53;2.95;;;2.42;;
32032;SDS011;31720;52.638;9.216;2023-06-24T17:03:54;3.08;;;2.17;;
32032;SDS011;31720;52.638;9.216;2023-06-24T17:06:56;3.65;;;2.78;;
32032;SDS011;31720;52.638;9.216;2023-06-24T17:09:57;3.90;;;2.67;;
32032;SDS011;31720;52.638;9.216;2023-06-24T17:12:58;4.35;;;2.28;;
32032;SDS011;31720;52.638;9.216;2023-06-24T17:16:01;3.63;;;2.60;;
32032;SDS011;31720;52.638;9.216;2023-06-24T17:19:02;3.95;;;2.83;;
32032;SDS011;31720;52.638;9.216;2023-06-24T17:22:05;4.40;;;3.10;;
32032;SDS011;31720;52.638;9.216;2023-06-24T17:25:07;4.60;;;2.58;;
32032;SDS011;31720;52.638;9.216;2023-06-24T17:28:09;4.85;;;2.90;;
32032;SDS011;31720;52.638;9.216;2023-06-24T17:31:11;3.22;;;2.70;;
32032;SDS011;31720;52.638;9.216;2023-06-24T17:34:13;3.58;;;2.63;;
32032;SDS011;31720;52.638;9.216;2023-06-24T17:37:15;4.22;;;2.58;;
32032;SDS011;31720;52.638;9.216;2023-06-24T17:40:16;4.55;;;2.50;;
32032;SDS011;31720;52.638;9.216;2023-06-24T17:43:17;3.60;;;2.60;;
32032;SDS011;31720;52.638;9.216;2023-06-24T17:46:20;4.35;;;2.47;;
32032;SDS011;31720;52.638;9.216;2023-06-24T17:49:21;4.20;;;2.70;;
32032;SDS011;31720;52.638;9.216;2023-06-24T17:52:23;3.60;;;2.70;;
32032;SDS011;31720;52.638;9.216;2023-06-24T17:55:24;6.05;;;2.97;;
32032;SDS011;31720;52.638;9.216;2023-06-24T17:58:26;4.13;;;2.80;;
32032;SDS011;31720;52.638;9.216;2023-06-24T18:01:29;2.97;;;2.67;;
32032;SDS011;31720;52.638;9.216;2023-06-24T18:04:30;6.50;;;2.97;;
32032;SDS011;31720;52.638;9.216;2023-06-24T18:07:32;4.13;;;2.40;;
32032;SDS011;31720;52.638;9.216;2023-06-24T18:10:33;3.38;;;2.40;;
32032;SDS011;31720;52.638;9.216;2023-06-24T18:13:35;3.63;;;2.38;;
32032;SDS011;31720;52.638;9.216;2023-06-24T18:16:40;2.53;;;2.33;;
32032;SDS011;31720;52.638;9.216;2023-06-24T18:19:47;5.32;;;2.53;;